createdAt,value
2023-04-07T00:02:16.737Z,10.36
2023-04-07T00:04:44.005Z,11.39
2023-04-07T00:07:11.229Z,12.15
2023-04-07T00:09:38.750Z,13.07
2023-04-07T00:12:06.951Z,14.09
2023-04-07T00:14:34.639Z,15.01
2023-04-07T00:17:02.078Z,15.76
2023-04-07T00:19:29.246Z,16.28
2023-04-07T00:21:56.198Z,16.93
2023-04-07T00:24:31.504Z,17.31
2023-04-07T00:27:01.922Z,17.74
2023-04-07T00:29:29.311Z,18.59
2023-04-07T00:31:56.418Z,19.37
2023-04-07T00:34:23.646Z,20.00
2023-04-07T00:36:54.505Z,20.62
2023-04-07T00:39:21.571Z,21.35
2023-04-07T00:41:49.478Z,22.02
2023-04-07T00:44:16.571Z,22.52
2023-04-07T00:46:43.782Z,22.76
2023-04-07T00:49:13.300Z,23.10
2023-04-07T00:51:40.872Z,23.64
2023-04-07T00:54:08.442Z,23.99
2023-04-07T00:56:36.402Z,24.20
2023-04-07T00:59:07.113Z,24.60
2023-04-07T01:01:40.910Z,25.06
2023-04-07T01:04:32.311Z,25.04
2023-04-07T01:07:14.351Z,25.08
2023-04-07T01:09:55.780Z,25.04
2023-04-07T01:12:34.326Z,25.13
2023-04-07T01:15:08.288Z,25.27
2023-04-07T01:17:42.499Z,25.68
2023-04-07T01:20:13.014Z,25.87
2023-04-07T01:22:47.327Z,25.98
2023-04-07T01:25:33.396Z,26.05
2023-04-07T01:28:03.789Z,26.02
2023-04-07T01:30:33.235Z,25.88
2023-04-07T01:33:00.719Z,26.00
2023-04-07T01:35:29.286Z,26.19
2023-04-07T01:37:56.539Z,26.23
2023-04-07T01:40:23.780Z,26.35
2023-04-07T01:42:51.319Z,26.16
2023-04-07T01:45:18.906Z,25.85
2023-04-07T01:47:46.741Z,25.76
2023-04-07T01:50:14.153Z,25.86
2023-04-07T01:52:42.055Z,25.88
2023-04-07T01:55:10.244Z,25.39
2023-04-07T01:57:44.153Z,25.18
2023-04-07T02:00:15.611Z,25.14
2023-04-07T02:02:46.348Z,25.11
2023-04-07T02:05:15.282Z,25.04
2023-04-07T02:07:50.567Z,24.84
2023-04-07T02:10:19.516Z,24.54
2023-04-07T02:12:47.256Z,24.28
2023-04-07T02:15:17.509Z,24.19
2023-04-07T02:17:48.949Z,24.02
2023-04-07T02:20:16.709Z,23.53
2023-04-07T02:22:44.752Z,23.11
2023-04-07T02:25:27.986Z,22.77
2023-04-07T02:27:56.367Z,22.59
2023-04-07T02:30:24.141Z,22.23
2023-04-07T02:32:52.277Z,22.25
2023-04-07T02:35:20.800Z,22.23
2023-04-07T02:37:47.916Z,22.27
2023-04-07T02:40:15.543Z,22.22
2023-04-07T02:42:42.939Z,22.05
2023-04-07T02:45:11.020Z,21.95
2023-04-07T02:47:38.677Z,21.75
2023-04-07T02:50:06.582Z,21.78
2023-04-07T02:52:35.995Z,21.66
2023-04-07T02:55:09.777Z,21.64
2023-04-07T02:57:36.882Z,21.49
2023-04-07T03:00:09.939Z,21.39
2023-04-07T03:02:56.429Z,21.55
2023-04-07T03:05:24.103Z,21.63
2023-04-07T03:07:51.298Z,21.88
2023-04-07T03:10:18.796Z,22.07
2023-04-07T03:12:46.293Z,22.06
2023-04-07T03:15:13.904Z,21.93
2023-04-07T03:17:46.268Z,22.03
2023-04-07T03:20:13.834Z,22.20
2023-04-07T03:22:41.011Z,22.29
2023-04-07T03:25:15.302Z,22.32
2023-04-07T03:27:42.878Z,22.45
2023-04-07T03:30:13.714Z,22.58
2023-04-07T03:32:41.249Z,22.72
2023-04-07T03:35:10.005Z,22.84
2023-04-07T03:37:37.981Z,22.99
2023-04-07T03:40:10.114Z,23.12
2023-04-07T03:42:37.645Z,23.16
2023-04-07T03:45:07.782Z,23.00
2023-04-07T03:47:38.280Z,23.03
2023-04-07T03:50:07.317Z,22.96
2023-04-07T03:52:42.719Z,22.83
2023-04-07T03:55:21.073Z,22.74
2023-04-07T03:57:48.729Z,22.62
2023-04-07T04:00:16.316Z,22.56
2023-04-07T04:02:43.640Z,22.57
2023-04-07T04:05:16.067Z,22.52
2023-04-07T04:07:43.485Z,22.50
2023-04-07T04:10:11.501Z,22.48
2023-04-07T04:12:43.269Z,22.39
2023-04-07T04:15:13.350Z,22.32
2023-04-07T04:17:41.335Z,22.41
2023-04-07T04:20:09.904Z,22.61
2023-04-07T04:22:47.556Z,22.70
2023-04-07T04:25:16.437Z,22.86
2023-04-07T04:27:48.794Z,23.05
2023-04-07T04:30:20.509Z,23.09
2023-04-07T04:32:51.997Z,23.01
2023-04-07T04:35:24.677Z,22.83
2023-04-07T04:38:18.993Z,22.61
2023-04-07T04:41:03.232Z,22.44
2023-04-07T04:43:31.952Z,22.28
2023-04-07T04:46:01.226Z,22.18
2023-04-07T04:48:33.242Z,21.98
2023-04-07T04:51:01.165Z,21.79
2023-04-07T04:53:28.530Z,21.56
2023-04-07T04:55:59.696Z,21.38
2023-04-07T04:58:40.251Z,21.16
2023-04-07T05:01:08.696Z,20.97
2023-04-07T05:03:43.060Z,20.76
2023-04-07T05:06:22.611Z,20.61
2023-04-07T05:08:52.174Z,20.38
2023-04-07T05:11:23.739Z,20.22
2023-04-07T05:13:53.863Z,20.04
2023-04-07T05:16:21.524Z,19.85
2023-04-07T05:18:49.594Z,19.72
2023-04-07T05:21:20.095Z,19.64
2023-04-07T05:23:48.162Z,19.63
2023-04-07T05:26:15.573Z,19.62
2023-04-07T05:28:43.867Z,19.63
2023-04-07T05:31:17.058Z,19.68
2023-04-07T05:33:47.286Z,19.75
2023-04-07T05:36:14.840Z,19.79
2023-04-07T05:38:42.776Z,19.78
2023-04-07T05:41:14.353Z,19.81
2023-04-07T05:43:41.631Z,19.84
2023-04-07T05:46:09.602Z,19.86
2023-04-07T05:48:46.246Z,19.79
2023-04-07T05:51:15.563Z,19.76
2023-04-07T05:53:43.433Z,19.69
2023-04-07T05:56:11.081Z,19.70
2023-04-07T05:58:47.242Z,19.72
2023-04-07T06:01:16.189Z,19.77
2023-04-07T06:03:44.420Z,19.82
2023-04-07T06:06:16.608Z,19.86
2023-04-07T06:08:46.300Z,19.91
2023-04-07T06:11:14.131Z,19.91
2023-04-07T06:13:41.514Z,19.91
2023-04-07T06:16:09.379Z,19.91
2023-04-07T06:18:38.151Z,19.97
2023-04-07T06:21:07.262Z,20.07
2023-04-07T06:23:34.629Z,20.14
2023-04-07T06:26:01.825Z,20.06
2023-04-07T06:28:30.060Z,19.99
2023-04-07T06:30:59.820Z,19.96
2023-04-07T06:33:28.605Z,19.87
2023-04-07T06:35:57.270Z,19.78
2023-04-07T06:38:24.734Z,19.76
2023-04-07T06:40:51.998Z,19.72
2023-04-07T06:43:19.387Z,19.73
2023-04-07T06:45:55.303Z,19.72
2023-04-07T06:48:23.100Z,19.74
2023-04-07T06:50:50.521Z,19.91
2023-04-07T06:53:17.794Z,20.04
2023-04-07T06:55:45.097Z,20.17
2023-04-07T06:58:12.503Z,20.33
2023-04-07T07:00:40.169Z,20.48
2023-04-07T07:03:08.104Z,20.56
2023-04-07T07:05:36.028Z,20.60
2023-04-07T07:08:03.159Z,20.68
2023-04-07T07:10:30.340Z,20.68
2023-04-07T07:12:57.508Z,20.68
2023-04-07T07:15:24.836Z,20.70
2023-04-07T07:17:52.412Z,20.74
2023-04-07T07:20:19.931Z,20.81
2023-04-07T07:22:48.053Z,20.88
2023-04-07T07:25:15.582Z,20.97
2023-04-07T07:27:42.847Z,20.95
2023-04-07T07:30:10.459Z,20.90
2023-04-07T07:32:37.815Z,20.92
2023-04-07T07:35:05.467Z,20.85
2023-04-07T07:37:33.416Z,20.77
2023-04-07T07:40:01.717Z,20.75
2023-04-07T07:42:30.755Z,20.77
2023-04-07T07:44:58.367Z,20.80
2023-04-07T07:47:26.777Z,20.84
2023-04-07T07:49:54.308Z,20.79
2023-04-07T07:52:22.034Z,20.75
2023-04-07T07:54:50.286Z,20.74
2023-04-07T07:57:17.828Z,20.73
2023-04-07T07:59:45.863Z,20.71
2023-04-07T08:02:13.488Z,20.72
2023-04-07T08:04:41.752Z,20.72
2023-04-07T08:07:09.072Z,20.66
2023-04-07T08:09:36.499Z,20.60
2023-04-07T08:12:03.804Z,20.56
2023-04-07T08:14:30.845Z,20.47
2023-04-07T08:16:57.958Z,20.46
2023-04-07T08:19:25.471Z,20.46
2023-04-07T08:21:52.808Z,20.48
2023-04-07T08:24:20.018Z,20.50
2023-04-07T08:26:47.697Z,20.49
2023-04-07T08:29:15.206Z,20.46
2023-04-07T08:31:42.507Z,20.44
2023-04-07T08:34:09.669Z,20.37
2023-04-07T08:36:37.475Z,20.29
2023-04-07T08:39:05.470Z,20.29
2023-04-07T08:41:39.308Z,20.28
2023-04-07T08:44:10.240Z,20.23
2023-04-07T08:46:40.885Z,20.18
2023-04-07T08:49:09.923Z,20.16
2023-04-07T08:51:37.915Z,20.15
2023-04-07T08:54:12.295Z,20.16
2023-04-07T08:56:41.342Z,20.13
2023-04-07T08:59:14.587Z,20.09
2023-04-07T09:01:42.229Z,20.05
2023-04-07T09:04:10.033Z,20.03
2023-04-07T09:06:37.771Z,20.03
2023-04-07T09:09:08.148Z,20.00
2023-04-07T09:11:36.716Z,19.98
2023-04-07T09:14:04.124Z,19.96
2023-04-07T09:16:31.495Z,19.91
2023-04-07T09:18:59.079Z,19.93
2023-04-07T09:21:27.045Z,19.88
2023-04-07T09:23:54.332Z,19.82
2023-04-07T09:26:24.576Z,19.81
2023-04-07T09:28:59.563Z,19.79
2023-04-07T09:31:49.887Z,19.75
2023-04-07T09:34:34.337Z,19.71
2023-04-07T09:37:01.867Z,19.67
2023-04-07T09:39:29.630Z,19.73
2023-04-07T09:41:57.965Z,19.71
2023-04-07T09:44:25.372Z,19.68
2023-04-07T09:46:53.361Z,19.69
2023-04-07T09:49:21.161Z,19.65
2023-04-07T09:52:07.163Z,19.63
2023-04-07T09:54:38.742Z,19.58
2023-04-07T09:57:10.413Z,19.56
2023-04-07T09:59:38.802Z,19.54
2023-04-07T10:02:06.388Z,19.51
2023-04-07T10:04:33.724Z,19.44
2023-04-07T10:07:01.196Z,19.37
2023-04-07T10:09:28.807Z,19.29
2023-04-07T10:11:57.961Z,19.26
2023-04-07T10:14:34.697Z,19.25
2023-04-07T10:17:03.398Z,19.22
2023-04-07T10:19:32.627Z,19.17
2023-04-07T10:22:00.009Z,19.19
2023-04-07T10:24:52.255Z,19.20
2023-04-07T10:27:21.525Z,19.18
2023-04-07T10:29:50.218Z,19.16
2023-04-07T10:32:17.461Z,19.15
2023-04-07T10:34:50.426Z,19.19
2023-04-07T10:37:20.985Z,19.20
2023-04-07T10:39:49.556Z,19.18
2023-04-07T10:42:41.572Z,19.21
2023-04-07T10:45:09.435Z,19.20
2023-04-07T10:48:09.302Z,19.19
2023-04-07T10:50:37.447Z,19.16
2023-04-07T10:53:12.355Z,19.14
2023-04-07T10:55:40.701Z,19.13
2023-04-07T10:58:14.957Z,19.15
2023-04-07T11:00:42.612Z,19.14
2023-04-07T11:03:13.475Z,19.14
2023-04-07T11:05:41.517Z,19.09
2023-04-07T11:08:09.014Z,19.03
2023-04-07T11:10:36.544Z,19.01
2023-04-07T11:13:07.795Z,18.97
2023-04-07T11:15:37.876Z,18.89
2023-04-07T11:18:16.557Z,18.78
2023-04-07T11:20:48.768Z,18.72
2023-04-07T11:23:16.462Z,18.66
2023-04-07T11:25:45.126Z,18.61
2023-04-07T11:28:13.126Z,18.55
2023-04-07T11:30:50.050Z,18.54
2023-04-07T11:33:22.093Z,18.51
2023-04-07T11:35:53.276Z,18.49
2023-04-07T11:38:21.334Z,18.48
2023-04-07T11:40:48.814Z,18.46
2023-04-07T11:43:19.746Z,18.43
2023-04-07T11:45:47.999Z,18.37
2023-04-07T11:48:29.560Z,18.30
2023-04-07T11:50:56.700Z,18.21
2023-04-07T11:53:28.853Z,18.14
2023-04-07T11:56:09.965Z,18.05
2023-04-07T11:58:37.508Z,17.95
2023-04-07T12:01:08.246Z,17.85
2023-04-07T12:03:36.782Z,17.74
2023-04-07T12:06:04.550Z,17.58
2023-04-07T12:08:42.497Z,17.49
2023-04-07T12:11:10.136Z,17.33
2023-04-07T12:13:37.794Z,17.21
2023-04-07T12:16:05.604Z,17.12
2023-04-07T12:18:33.256Z,17.01
2023-04-07T12:21:00.369Z,16.90
2023-04-07T12:23:27.653Z,16.80
2023-04-07T12:25:54.661Z,16.73
2023-04-07T12:28:22.032Z,16.63
2023-04-07T12:30:49.090Z,16.53
2023-04-07T12:33:16.967Z,16.42
2023-04-07T12:35:44.889Z,16.39
2023-04-07T12:38:12.727Z,16.36
2023-04-07T12:40:39.728Z,16.29
2023-04-07T12:43:07.405Z,16.23
2023-04-07T12:45:34.766Z,16.18
2023-04-07T12:48:02.738Z,16.09
2023-04-07T12:50:30.307Z,16.02
2023-04-07T12:52:59.874Z,15.98
2023-04-07T12:55:26.923Z,15.87
2023-04-07T12:57:55.850Z,15.79
2023-04-07T13:00:23.013Z,15.74
2023-04-07T13:02:50.485Z,15.70
2023-04-07T13:05:18.861Z,15.64
2023-04-07T13:07:47.373Z,15.60
2023-04-07T13:10:16.376Z,15.58
2023-04-07T13:12:43.886Z,15.56
2023-04-07T13:15:11.645Z,15.55
2023-04-07T13:17:39.209Z,15.49
2023-04-07T13:20:07.437Z,15.47
2023-04-07T13:22:36.037Z,15.42
2023-04-07T13:25:04.258Z,15.33
2023-04-07T13:27:31.286Z,15.22
2023-04-07T13:29:58.637Z,15.10
2023-04-07T13:32:26.973Z,15.03
2023-04-07T13:34:55.696Z,14.93
2023-04-07T13:37:23.265Z,14.82
2023-04-07T13:39:51.412Z,14.71
2023-04-07T13:42:20.660Z,14.55
2023-04-07T13:44:50.335Z,14.43
2023-04-07T13:47:21.575Z,14.33
2023-04-07T13:49:49.210Z,14.25
2023-04-07T13:52:17.542Z,14.13
2023-04-07T13:54:44.957Z,14.04
2023-04-07T13:57:14.500Z,13.94
2023-04-07T13:59:41.861Z,13.84
2023-04-07T14:02:09.128Z,13.75
2023-04-07T14:04:37.001Z,13.68
2023-04-07T14:07:04.170Z,13.60
2023-04-07T14:09:31.696Z,13.54
2023-04-07T14:11:59.310Z,13.46
2023-04-07T14:14:26.814Z,13.42
2023-04-07T14:16:54.472Z,13.38
2023-04-07T14:19:24.830Z,13.32
2023-04-07T14:21:52.213Z,13.30
2023-04-07T14:24:19.708Z,13.26
2023-04-07T14:26:46.916Z,13.16
2023-04-07T14:29:14.689Z,12.80
2023-04-07T14:31:42.723Z,11.92
2023-04-07T14:34:10.021Z,11.17
2023-04-07T14:36:37.402Z,10.32
2023-04-07T14:39:04.862Z,9.73
2023-04-07T14:41:32.059Z,9.28
2023-04-07T14:43:59.797Z,8.89
2023-04-07T14:46:27.265Z,8.58
2023-04-07T14:48:54.761Z,8.28
2023-04-07T14:51:22.354Z,7.95
2023-04-07T14:53:55.374Z,7.58
2023-04-07T14:56:22.423Z,7.29
2023-04-07T14:58:49.813Z,7.07
2023-04-07T15:01:17.546Z,6.90
2023-04-07T15:03:46.522Z,6.72
2023-04-07T15:06:14.010Z,6.52
2023-04-07T15:08:41.705Z,6.33
2023-04-07T15:11:09.469Z,6.17
2023-04-07T15:13:36.870Z,5.95
2023-04-07T15:16:09.016Z,5.70
2023-04-07T15:18:38.109Z,5.52
2023-04-07T15:21:05.881Z,5.38
2023-04-07T15:23:33.849Z,5.25
2023-04-07T15:26:01.434Z,5.13
2023-04-07T15:28:28.909Z,5.00
2023-04-07T15:30:56.255Z,4.88
2023-04-07T15:33:24.416Z,4.78
2023-04-07T15:35:51.533Z,4.62
2023-04-07T15:38:18.956Z,4.50
2023-04-07T15:40:46.329Z,4.42
2023-04-07T15:43:13.783Z,4.34
2023-04-07T15:45:44.518Z,4.24
2023-04-07T15:48:12.297Z,4.11
2023-04-07T15:50:39.885Z,4.01
2023-04-07T15:53:07.026Z,3.91
2023-04-07T15:55:34.833Z,3.83
2023-04-07T15:58:02.871Z,3.76
2023-04-07T16:00:34.110Z,3.72
2023-04-07T16:03:02.835Z,3.64
2023-04-07T16:05:30.349Z,3.48
2023-04-07T16:07:57.918Z,3.34
2023-04-07T16:10:25.079Z,3.13
2023-04-07T16:12:52.912Z,2.85
2023-04-07T16:15:28.957Z,2.63
2023-04-07T16:18:07.985Z,2.45
2023-04-07T16:20:35.428Z,2.31
2023-04-07T16:23:02.870Z,2.23
2023-04-07T16:25:30.856Z,2.15
2023-04-07T16:27:57.877Z,2.07
2023-04-07T16:30:25.362Z,1.95
2023-04-07T16:32:52.952Z,1.83
2023-04-07T16:35:20.611Z,1.74
2023-04-07T16:37:49.616Z,1.64
2023-04-07T16:40:16.998Z,1.59
2023-04-07T16:42:44.095Z,1.44
2023-04-07T16:45:11.595Z,1.37
2023-04-07T16:47:39.592Z,1.29
2023-04-07T16:50:07.221Z,1.26
2023-04-07T16:52:34.827Z,1.28
2023-04-07T16:55:02.267Z,1.22
2023-04-07T16:57:29.878Z,1.14
2023-04-07T16:59:57.418Z,1.03
2023-04-07T17:02:25.246Z,0.97
2023-04-07T17:04:52.309Z,0.93
2023-04-07T17:07:20.029Z,0.91
2023-04-07T17:09:47.020Z,0.91
2023-04-07T17:12:14.701Z,0.81
2023-04-07T17:14:42.540Z,0.76
2023-04-07T17:17:09.764Z,0.71
2023-04-07T17:19:37.309Z,0.55
2023-04-07T17:22:04.854Z,0.48
2023-04-07T17:24:32.568Z,0.42
2023-04-07T17:26:59.518Z,0.38
2023-04-07T17:29:28.818Z,0.36
2023-04-07T17:31:56.305Z,0.36
2023-04-07T17:34:24.004Z,0.33
2023-04-07T17:36:51.839Z,0.29
2023-04-07T17:39:19.387Z,0.23
2023-04-07T17:41:47.821Z,0.20
2023-04-07T17:44:15.330Z,0.16
2023-04-07T17:46:42.829Z,0.10
2023-04-07T17:49:09.877Z,0.04
2023-04-07T17:51:37.463Z,-0.01
2023-04-07T17:54:04.750Z,-0.06
2023-04-07T17:56:32.545Z,-0.07
2023-04-07T17:58:59.890Z,-0.13
2023-04-07T18:01:27.551Z,-0.21
2023-04-07T18:03:54.863Z,-0.23
2023-04-07T18:06:22.646Z,-0.29
2023-04-07T18:08:52.723Z,-0.36
2023-04-07T18:11:21.630Z,-0.38
2023-04-07T18:13:49.107Z,-0.41
2023-04-07T18:16:21.857Z,-0.40
2023-04-07T18:18:49.342Z,-0.42
2023-04-07T18:21:16.698Z,-0.47
2023-04-07T18:23:44.060Z,-0.48
2023-04-07T18:26:11.377Z,-0.45
2023-04-07T18:28:38.834Z,-0.44
2023-04-07T18:31:07.353Z,-0.45
2023-04-07T18:33:35.340Z,-0.46
2023-04-07T18:36:07.043Z,-0.50
2023-04-07T18:38:36.103Z,-0.55
2023-04-07T18:41:03.990Z,-0.59
2023-04-07T18:43:31.513Z,-0.67
2023-04-07T18:45:58.773Z,-0.77
2023-04-07T18:48:27.095Z,-0.88
2023-04-07T18:50:55.193Z,-0.95
2023-04-07T18:53:22.883Z,-0.95
2023-04-07T18:55:51.026Z,-0.96
2023-04-07T18:58:19.040Z,-0.99
2023-04-07T19:00:46.985Z,-1.07
2023-04-07T19:03:14.496Z,-1.14
2023-04-07T19:05:42.361Z,-1.18
2023-04-07T19:08:09.825Z,-1.21
2023-04-07T19:10:37.246Z,-1.26
2023-04-07T19:13:04.716Z,-1.31
2023-04-07T19:15:37.989Z,-1.34
2023-04-07T19:18:05.102Z,-1.37
2023-04-07T19:20:33.468Z,-1.35
2023-04-07T19:23:02.039Z,-1.30
2023-04-07T19:25:30.791Z,-1.24
2023-04-07T19:27:58.626Z,-1.24
2023-04-07T19:30:25.919Z,-1.26
2023-04-07T19:32:53.847Z,-1.31
2023-04-07T19:35:21.317Z,-1.33
2023-04-07T19:37:48.492Z,-1.36
2023-04-07T19:40:16.091Z,-1.38
2023-04-07T19:42:43.204Z,-1.44
2023-04-07T19:45:11.119Z,-1.41
2023-04-07T19:47:38.870Z,-1.42
2023-04-07T19:50:06.675Z,-1.44
2023-04-07T19:52:34.281Z,-1.53
2023-04-07T19:55:02.696Z,-1.55
2023-04-07T19:57:31.230Z,-1.61
2023-04-07T19:59:58.883Z,-1.65
2023-04-07T20:02:26.248Z,-1.71
2023-04-07T20:04:53.642Z,-1.70
2023-04-07T20:07:22.484Z,-1.68
2023-04-07T20:09:53.681Z,-1.69
2023-04-07T20:12:21.327Z,-1.65
2023-04-07T20:14:48.315Z,-1.63
2023-04-07T20:17:16.212Z,-1.59
2023-04-07T20:19:43.509Z,-1.51
2023-04-07T20:22:11.171Z,-1.55
2023-04-07T20:24:39.181Z,-1.59
2023-04-07T20:27:06.600Z,-1.66
2023-04-07T20:29:34.265Z,-1.70
2023-04-07T20:32:01.218Z,-1.81
2023-04-07T20:34:28.835Z,-1.84
2023-04-07T20:36:56.344Z,-1.81
2023-04-07T20:39:23.690Z,-1.78
2023-04-07T20:41:50.785Z,-1.78
2023-04-07T20:44:18.475Z,-1.90
2023-04-07T20:46:48.730Z,-2.03
2023-04-07T20:49:15.979Z,-2.07
2023-04-07T20:51:43.641Z,-2.07
2023-04-07T20:54:10.794Z,-2.12
2023-04-07T20:56:38.956Z,-2.21
2023-04-07T20:59:06.143Z,-2.28
2023-04-07T21:01:33.620Z,-2.29
2023-04-07T21:04:02.372Z,-2.24
2023-04-07T21:06:31.230Z,-2.28
2023-04-07T21:08:58.708Z,-2.42
2023-04-07T21:11:26.144Z,-2.58
2023-04-07T21:13:53.359Z,-2.67
2023-04-07T21:16:20.492Z,-2.71
2023-04-07T21:18:47.969Z,-2.81
2023-04-07T21:21:15.274Z,-2.92
2023-04-07T21:23:43.125Z,-3.06
2023-04-07T21:26:10.766Z,-3.06
2023-04-07T21:28:39.834Z,-3.09
2023-04-07T21:31:07.527Z,-3.11
2023-04-07T21:33:34.864Z,-3.13
2023-04-07T21:36:03.493Z,-3.16
2023-04-07T21:38:31.230Z,-3.19
2023-04-07T21:40:58.290Z,-3.17
2023-04-07T21:43:28.603Z,-3.14
2023-04-07T21:45:55.800Z,-3.18
2023-04-07T21:48:23.464Z,-3.20
2023-04-07T21:50:53.938Z,-3.22
2023-04-07T21:53:21.307Z,-3.19
2023-04-07T21:55:48.417Z,-3.20
2023-04-07T21:58:16.252Z,-3.22
2023-04-07T22:00:43.237Z,-3.29
2023-04-07T22:03:10.554Z,-3.33
2023-04-07T22:05:38.343Z,-3.37
2023-04-07T22:08:06.624Z,-3.44
2023-04-07T22:10:34.045Z,-3.52
2023-04-07T22:13:01.366Z,-3.60
2023-04-07T22:15:28.515Z,-3.71
2023-04-07T22:17:58.928Z,-3.79
2023-04-07T22:20:26.877Z,-3.83
2023-04-07T22:22:57.012Z,-3.92
2023-04-07T22:25:24.785Z,-4.01
2023-04-07T22:27:52.722Z,-4.05
2023-04-07T22:30:20.567Z,-4.17
2023-04-07T22:32:48.243Z,-4.26
2023-04-07T22:35:15.914Z,-4.26
2023-04-07T22:37:43.148Z,-4.28
2023-04-07T22:40:10.553Z,-4.32
2023-04-07T22:42:39.202Z,-4.36
2023-04-07T22:45:07.342Z,-4.45
2023-04-07T22:47:34.588Z,-4.46
2023-04-07T22:50:01.693Z,-4.50
2023-04-07T22:52:29.471Z,-4.54
2023-04-07T22:54:57.606Z,-4.54
2023-04-07T22:57:25.815Z,-4.56
2023-04-07T22:59:53.214Z,-4.62
2023-04-07T23:02:21.038Z,-4.63
2023-04-07T23:04:49.610Z,-4.62
2023-04-07T23:07:16.872Z,-4.64
2023-04-07T23:09:44.255Z,-4.53
2023-04-07T23:12:11.608Z,-4.41
2023-04-07T23:14:38.708Z,-4.40
2023-04-07T23:17:06.146Z,-4.30
2023-04-07T23:19:33.174Z,-4.27
2023-04-07T23:22:00.449Z,-4.19
2023-04-07T23:24:27.824Z,-4.18
2023-04-07T23:26:56.272Z,-4.25
2023-04-07T23:29:23.673Z,-4.43
2023-04-07T23:31:51.037Z,-4.55
2023-04-07T23:34:18.043Z,-4.60
2023-04-07T23:36:45.455Z,-4.65
2023-04-07T23:39:12.982Z,-4.64
2023-04-07T23:41:40.670Z,-4.61
2023-04-07T23:44:08.478Z,-4.64
2023-04-07T23:46:35.873Z,-4.76
2023-04-07T23:49:08.599Z,-4.84
2023-04-07T23:51:36.524Z,-4.84
2023-04-07T23:54:03.636Z,-4.76
2023-04-07T23:56:31.966Z,-4.75
2023-04-07T23:58:59.211Z,-4.73
